Time;durP1;ratioP1;P1;durP2;ratioP2;P2;SDS_P1;SDS_P2;PMS_P1;PMS_P2;Temp;Humidity;BMP_temperature;BMP_pressure;BME280_temperature;BME280_humidity;BME280_pressure;Samples;Min_cycle;Max_cycle;Signal;HPM_P1;HPM_P2
2022/01/04 00:00:27;;;;;;;0.93;0.87;;;;;;;;;;4945758;28;20366;-75
2022/01/04 00:02:52;;;;;;;1.63;0.97;;;;;;;;;;4953342;28;20513;-75
2022/01/04 00:05:17;;;;;;;0.70;0.70;;;;;;;;;;4954752;28;20180;-75
2022/01/04 00:07:42;;;;;;;0.80;0.80;;;;;;;;;;4939215;29;20189;-75
2022/01/04 00:10:09;;;;;;;0.80;0.80;;;;;;;;;;4959244;28;20194;-75
2022/01/04 00:15:19;;;;;;;1.10;1.00;;;;;;;;;;4951681;28;20188;-75
2022/01/04 00:17:44;;;;;;;0.97;0.87;;;;;;;;;;4944282;28;20178;-75
2022/01/04 00:20:11;;;;;;;1.30;1.20;;;;;;;;;;4936310;29;20178;-75
2022/01/04 00:22:36;;;;;;;0.97;0.87;;;;;;;;;;4954843;28;20178;-75
2022/01/04 00:25:01;;;;;;;1.53;0.90;;;;;;;;;;4956632;28;20184;-75
2022/01/04 00:27:26;;;;;;;1.50;1.40;;;;;;;;;;4940263;29;20226;-75
2022/01/04 00:29:51;;;;;;;1.33;1.10;;;;;;;;;;4957688;28;20180;-75
2022/01/04 00:32:17;;;;;;;1.10;1.00;;;;;;;;;;4939944;29;20184;-75
2022/01/04 00:34:42;;;;;;;0.90;0.90;;;;;;;;;;4959771;28;20228;-75
2022/01/04 00:37:07;;;;;;;0.70;0.70;;;;;;;;;;4939890;28;20232;-75
2022/01/04 00:39:33;;;;;;;0.80;0.80;;;;;;;;;;4950161;28;20278;-75
2022/01/04 00:42:00;;;;;;;1.10;0.90;;;;;;;;;;4936766;29;20182;-75
2022/01/04 00:44:26;;;;;;;2.10;0.80;;;;;;;;;;4934229;29;20211;-75
2022/01/04 00:46:51;;;;;;;0.67;0.67;;;;;;;;;;4935148;29;20184;-75
2022/01/04 00:49:17;;;;;;;1.57;1.10;;;;;;;;;;4936046;29;20253;-75
2022/01/04 00:51:50;;;;;;;1.00;0.90;;;;;;;;;;4933099;29;20182;-75
2022/01/04 00:54:16;;;;;;;1.67;1.33;;;;;;;;;;4947875;29;20200;-75
2022/01/04 00:56:41;;;;;;;1.20;0.87;;;;;;;;;;4936517;29;20173;-75
2022/01/04 00:59:07;;;;;;;1.10;1.00;;;;;;;;;;4928550;29;20179;-75
2022/01/04 01:01:32;;;;;;;1.97;1.00;;;;;;;;;;4934287;29;20203;-75
2022/01/04 01:03:57;;;;;;;1.00;1.00;;;;;;;;;;4938510;28;20209;-75
2022/01/04 01:06:22;;;;;;;1.10;0.93;;;;;;;;;;4935783;29;20208;-75
2022/01/04 01:08:48;;;;;;;1.30;0.93;;;;;;;;;;4934823;29;20175;-75
2022/01/04 01:11:13;;;;;;;1.93;1.10;;;;;;;;;;4946079;29;20195;-75
2022/01/04 01:13:39;;;;;;;1.07;1.03;;;;;;;;;;4938873;29;20210;-75
2022/01/04 01:16:04;;;;;;;1.10;1.10;;;;;;;;;;4938370;29;20178;-75
2022/01/04 01:18:29;;;;;;;0.90;0.90;;;;;;;;;;4937201;29;20177;-75
2022/01/04 01:20:55;;;;;;;0.90;0.90;;;;;;;;;;4933790;29;20183;-75
2022/01/04 01:23:20;;;;;;;0.93;0.90;;;;;;;;;;4934424;29;20263;-75
2022/01/04 01:25:46;;;;;;;0.90;0.90;;;;;;;;;;4933044;28;20259;-75
2022/01/04 01:28:11;;;;;;;1.00;1.00;;;;;;;;;;4933988;29;20251;-75
2022/01/04 01:30:40;;;;;;;1.27;1.17;;;;;;;;;;4948259;29;20455;-75
2022/01/04 01:33:05;;;;;;;1.30;1.20;;;;;;;;;;4932659;29;20217;-75
2022/01/04 01:35:34;;;;;;;2.47;0.90;;;;;;;;;;4932231;29;20231;-75
2022/01/04 01:37:59;;;;;;;1.70;1.03;;;;;;;;;;4934656;29;20181;-75
2022/01/04 01:40:24;;;;;;;1.83;1.10;;;;;;;;;;4942603;29;20190;-75
2022/01/04 01:42:49;;;;;;;2.93;1.10;;;;;;;;;;4932783;29;20182;-75
2022/01/04 01:45:16;;;;;;;1.97;1.20;;;;;;;;;;4948801;29;20211;-75
2022/01/04 01:47:42;;;;;;;0.97;0.90;;;;;;;;;;4934204;29;20177;-75
2022/01/04 01:50:08;;;;;;;1.23;1.13;;;;;;;;;;4946389;28;20207;-75
2022/01/04 01:52:33;;;;;;;1.40;1.30;;;;;;;;;;4945730;28;20214;-75
2022/01/04 01:54:59;;;;;;;1.20;1.10;;;;;;;;;;4937191;29;20221;-75
2022/01/04 01:57:24;;;;;;;2.33;1.10;;;;;;;;;;4931486;29;20210;-75
2022/01/04 01:59:50;;;;;;;2.57;1.60;;;;;;;;;;4932536;29;20177;-75
2022/01/04 02:02:16;;;;;;;1.20;1.20;;;;;;;;;;4932774;29;20401;-75
2022/01/04 02:04:41;;;;;;;1.63;1.53;;;;;;;;;;4935790;29;20258;-75
2022/01/04 02:07:07;;;;;;;1.50;1.30;;;;;;;;;;4937406;28;20202;-75
2022/01/04 02:09:33;;;;;;;1.40;1.30;;;;;;;;;;4937802;29;20184;-75
2022/01/04 02:11:59;;;;;;;1.53;1.40;;;;;;;;;;4934211;28;20203;-75
2022/01/04 02:14:25;;;;;;;1.60;1.50;;;;;;;;;;4932363;29;20213;-75
2022/01/04 02:16:50;;;;;;;1.40;1.30;;;;;;;;;;4934518;29;20240;-75
2022/01/04 02:19:16;;;;;;;1.47;1.33;;;;;;;;;;4933540;29;20244;-75
2022/01/04 02:21:42;;;;;;;1.50;1.40;;;;;;;;;;4933224;29;20192;-75
2022/01/04 02:24:07;;;;;;;1.43;1.33;;;;;;;;;;4931657;29;20175;-75
2022/01/04 02:26:32;;;;;;;1.30;1.20;;;;;;;;;;4936192;29;20182;-75
2022/01/04 02:28:58;;;;;;;1.40;1.30;;;;;;;;;;4938082;29;20186;-75
2022/01/04 02:31:23;;;;;;;1.60;1.50;;;;;;;;;;4936027;29;20235;-75
2022/01/04 02:33:48;;;;;;;1.50;1.40;;;;;;;;;;4937553;29;20210;-75
2022/01/04 02:36:14;;;;;;;1.67;1.57;;;;;;;;;;4937925;29;20227;-75
2022/01/04 02:38:39;;;;;;;1.70;1.60;;;;;;;;;;4939173;29;20184;-75
2022/01/04 02:41:04;;;;;;;1.43;1.33;;;;;;;;;;4936400;29;20177;-75
2022/01/04 02:43:29;;;;;;;1.63;1.53;;;;;;;;;;4938231;29;20251;-75
2022/01/04 02:45:55;;;;;;;3.67;1.57;;;;;;;;;;4936691;29;20197;-75
2022/01/04 02:48:20;;;;;;;3.27;1.70;;;;;;;;;;4935066;29;20280;-75
2022/01/04 02:50:46;;;;;;;1.73;1.60;;;;;;;;;;4936319;29;20330;-75
2022/01/04 02:53:11;;;;;;;1.77;1.67;;;;;;;;;;4938768;29;20202;-75
2022/01/04 02:55:36;;;;;;;3.03;1.80;;;;;;;;;;4936245;29;20291;-75
2022/01/04 02:58:02;;;;;;;1.60;1.50;;;;;;;;;;4949011;29;20190;-75
2022/01/04 03:00:28;;;;;;;1.90;1.70;;;;;;;;;;4935971;29;20187;-75
2022/01/04 03:02:54;;;;;;;1.50;1.40;;;;;;;;;;4937653;29;20196;-75
2022/01/04 03:05:19;;;;;;;1.50;1.40;;;;;;;;;;4939240;29;20189;-75
2022/01/04 03:07:44;;;;;;;1.47;1.37;;;;;;;;;;4939042;29;20177;-75
2022/01/04 03:10:09;;;;;;;1.60;1.50;;;;;;;;;;4951987;28;20220;-75
2022/01/04 03:12:35;;;;;;;1.30;1.20;;;;;;;;;;4937015;29;20481;-75
2022/01/04 03:15:01;;;;;;;1.30;1.20;;;;;;;;;;4950135;29;20259;-75
2022/01/04 03:17:26;;;;;;;3.00;1.53;;;;;;;;;;4933969;29;20206;-75
2022/01/04 03:19:51;;;;;;;1.70;1.50;;;;;;;;;;4936172;29;20178;-75
2022/01/04 03:22:16;;;;;;;1.50;1.40;;;;;;;;;;4943850;29;20250;-75
2022/01/04 03:24:42;;;;;;;1.50;1.40;;;;;;;;;;4936772;29;20205;-75
2022/01/04 03:27:07;;;;;;;1.93;1.60;;;;;;;;;;4938263;29;20371;-75
2022/01/04 03:29:32;;;;;;;1.30;1.20;;;;;;;;;;4935512;29;20217;-75
2022/01/04 03:31:58;;;;;;;1.07;1.07;;;;;;;;;;4935904;29;20206;-75
2022/01/04 03:34:23;;;;;;;1.87;1.67;;;;;;;;;;4940230;29;20245;-75
2022/01/04 03:36:49;;;;;;;1.27;1.17;;;;;;;;;;4936511;28;20232;-75
2022/01/04 03:39:14;;;;;;;1.33;1.23;;;;;;;;;;4937732;29;20180;-75
2022/01/04 03:41:40;;;;;;;1.87;1.30;;;;;;;;;;4942717;29;20235;-75
2022/01/04 03:44:07;;;;;;;1.13;1.03;;;;;;;;;;4939987;29;20215;-75
2022/01/04 03:46:32;;;;;;;1.70;1.10;;;;;;;;;;4934873;29;20185;-75
2022/01/04 03:48:57;;;;;;;1.47;1.17;;;;;;;;;;4938819;29;20208;-75
2022/01/04 03:51:23;;;;;;;1.07;1.03;;;;;;;;;;4935177;29;20184;-75
2022/01/04 03:53:48;;;;;;;1.20;1.10;;;;;;;;;;4936021;28;20227;-75
2022/01/04 03:56:13;;;;;;;1.30;1.20;;;;;;;;;;4935181;29;20214;-75
2022/01/04 03:58:38;;;;;;;1.17;1.07;;;;;;;;;;4935554;29;20494;-75
2022/01/04 04:01:03;;;;;;;0.90;0.90;;;;;;;;;;4949747;29;20248;-75
2022/01/04 04:03:29;;;;;;;1.30;1.20;;;;;;;;;;4950641;29;20250;-75
2022/01/04 04:05:54;;;;;;;2.03;1.30;;;;;;;;;;4949603;29;20256;-75
2022/01/04 04:08:20;;;;;;;1.20;1.10;;;;;;;;;;4936101;29;20237;-75
2022/01/04 04:10:45;;;;;;;0.97;0.90;;;;;;;;;;4934362;29;20597;-75
2022/01/04 04:13:10;;;;;;;1.00;1.00;;;;;;;;;;4934494;29;20303;-75
2022/01/04 04:15:38;;;;;;;1.30;1.20;;;;;;;;;;4948814;29;20197;-75
2022/01/04 04:18:03;;;;;;;1.00;0.90;;;;;;;;;;4937167;29;20189;-75
2022/01/04 04:20:28;;;;;;;0.87;0.87;;;;;;;;;;4937101;28;20196;-75
2022/01/04 04:22:54;;;;;;;0.70;0.70;;;;;;;;;;4933031;29;20200;-75
2022/01/04 04:25:19;;;;;;;2.50;0.80;;;;;;;;;;4936044;29;20187;-75
2022/01/04 04:27:44;;;;;;;0.90;0.80;;;;;;;;;;4933674;29;20181;-75
2022/01/04 04:30:10;;;;;;;0.97;0.87;;;;;;;;;;4950174;28;20198;-75
2022/01/04 04:32:35;;;;;;;0.57;0.57;;;;;;;;;;4933703;29;20188;-75
2022/01/04 04:35:00;;;;;;;0.80;0.80;;;;;;;;;;4937661;29;20265;-75
2022/01/04 04:37:26;;;;;;;1.33;0.80;;;;;;;;;;4956719;28;20185;-75
2022/01/04 04:39:51;;;;;;;0.70;0.70;;;;;;;;;;4940727;28;20261;-75
2022/01/04 04:42:16;;;;;;;0.97;0.90;;;;;;;;;;4950508;29;20243;-75
2022/01/04 04:44:43;;;;;;;1.43;0.83;;;;;;;;;;4954184;28;20188;-75
2022/01/04 04:47:09;;;;;;;0.53;0.53;;;;;;;;;;4937511;29;20222;-75
2022/01/04 04:49:34;;;;;;;0.57;0.57;;;;;;;;;;4939023;28;20264;-75
2022/01/04 04:51:59;;;;;;;0.60;0.60;;;;;;;;;;4937709;29;20235;-75
2022/01/04 04:54:25;;;;;;;0.80;0.70;;;;;;;;;;4938782;28;20264;-75
2022/01/04 04:56:51;;;;;;;0.73;0.70;;;;;;;;;;4937190;29;20193;-75
2022/01/04 04:59:16;;;;;;;0.50;0.50;;;;;;;;;;4953001;28;20184;-75
2022/01/04 05:01:41;;;;;;;0.60;0.60;;;;;;;;;;4951025;28;20192;-75
2022/01/04 05:04:08;;;;;;;0.50;0.50;;;;;;;;;;4937019;29;20183;-75
2022/01/04 05:06:33;;;;;;;0.73;0.67;;;;;;;;;;4943201;28;20226;-75
2022/01/04 05:08:58;;;;;;;0.87;0.87;;;;;;;;;;4937875;29;20207;-75
2022/01/04 05:11:24;;;;;;;0.50;0.50;;;;;;;;;;4943637;29;20198;-75
2022/01/04 05:13:49;;;;;;;0.53;0.53;;;;;;;;;;4936362;28;20421;-75
2022/01/04 05:16:14;;;;;;;0.60;0.50;;;;;;;;;;4939829;29;20182;-75
2022/01/04 05:18:40;;;;;;;0.50;0.50;;;;;;;;;;4937571;29;20209;-75
2022/01/04 05:21:05;;;;;;;0.70;0.63;;;;;;;;;;4936355;28;20182;-75
2022/01/04 05:23:31;;;;;;;0.40;0.40;;;;;;;;;;4956540;28;20274;-75
2022/01/04 05:25:56;;;;;;;0.47;0.47;;;;;;;;;;4939907;29;20184;-75
2022/01/04 05:28:21;;;;;;;0.33;0.33;;;;;;;;;;4957912;28;20187;-75
2022/01/04 05:30:46;;;;;;;0.50;0.50;;;;;;;;;;4937254;28;20173;-75
2022/01/04 05:33:11;;;;;;;0.40;0.40;;;;;;;;;;4942227;29;20258;-75
2022/01/04 05:35:39;;;;;;;0.50;0.50;;;;;;;;;;4943919;29;20238;-75
2022/01/04 05:38:05;;;;;;;0.40;0.40;;;;;;;;;;4952381;28;20237;-75
2022/01/04 05:40:30;;;;;;;0.33;0.33;;;;;;;;;;4952830;28;20286;-75
2022/01/04 05:42:55;;;;;;;0.70;0.60;;;;;;;;;;4952762;28;20183;-75
2022/01/04 05:45:20;;;;;;;0.30;0.30;;;;;;;;;;4955845;28;20179;-75
2022/01/04 05:47:46;;;;;;;0.50;0.50;;;;;;;;;;4938802;29;20224;-75
2022/01/04 05:50:11;;;;;;;0.77;0.67;;;;;;;;;;4939553;29;20206;-75
2022/01/04 05:52:36;;;;;;;0.60;0.40;;;;;;;;;;4938043;29;20265;-75
2022/01/04 05:55:01;;;;;;;1.03;1.03;;;;;;;;;;4939831;29;20218;-75
2022/01/04 05:57:27;;;;;;;0.70;0.70;;;;;;;;;;4955098;28;20252;-75
2022/01/04 05:59:52;;;;;;;0.93;0.67;;;;;;;;;;4938887;28;20191;-75
2022/01/04 06:02:17;;;;;;;0.70;0.60;;;;;;;;;;4956346;28;20182;-75
2022/01/04 06:04:43;;;;;;;0.50;0.50;;;;;;;;;;4944729;29;20183;-75
2022/01/04 06:07:08;;;;;;;0.53;0.53;;;;;;;;;;4942502;29;20179;-75
2022/01/04 06:09:42;;;;;;;0.67;0.40;;;;;;;;;;4939676;29;20187;-75
2022/01/04 06:14:50;;;;;;;0.80;0.80;;;;;;;;;;4940331;29;20212;-75
2022/01/04 06:14:53;;;;;;;2.00;1.03;;;;;;;;;;4963821;28;20239;-75
2022/01/04 06:17:18;;;;;;;0.80;0.70;;;;;;;;;;4956484;28;20209;-75
2022/01/04 06:19:43;;;;;;;0.37;0.37;;;;;;;;;;4951393;28;20203;-75
2022/01/04 06:22:09;;;;;;;1.40;0.97;;;;;;;;;;4953835;28;20183;-75
2022/01/04 06:24:36;;;;;;;0.50;0.50;;;;;;;;;;4946860;28;20188;-75
2022/01/04 06:27:04;;;;;;;0.40;0.40;;;;;;;;;;4936773;29;20219;-75
2022/01/04 06:29:29;;;;;;;0.67;0.60;;;;;;;;;;4943348;29;20188;-75
2022/01/04 06:31:54;;;;;;;0.47;0.47;;;;;;;;;;4937056;28;20191;-75
2022/01/04 06:34:19;;;;;;;0.80;0.80;;;;;;;;;;4953210;29;20211;-75
2022/01/04 06:36:44;;;;;;;0.60;0.60;;;;;;;;;;4959941;28;20372;-75
2022/01/04 06:39:10;;;;;;;0.87;0.87;;;;;;;;;;4939082;29;20178;-75
2022/01/04 06:41:35;;;;;;;0.90;0.70;;;;;;;;;;4945275;29;20183;-75
2022/01/04 06:44:00;;;;;;;0.70;0.70;;;;;;;;;;4961181;28;20248;-75
2022/01/04 06:46:26;;;;;;;1.20;0.90;;;;;;;;;;4947642;29;20188;-75
2022/01/04 06:48:51;;;;;;;0.60;0.60;;;;;;;;;;4939279;29;20187;-75
2022/01/04 06:51:16;;;;;;;0.70;0.70;;;;;;;;;;4940019;28;20187;-75
2022/01/04 06:53:42;;;;;;;0.57;0.57;;;;;;;;;;4945762;29;20205;-75
2022/01/04 06:56:07;;;;;;;1.00;0.80;;;;;;;;;;4939393;29;20191;-75
2022/01/04 06:58:32;;;;;;;0.50;0.50;;;;;;;;;;4938958;29;20186;-75
2022/01/04 07:00:57;;;;;;;1.57;0.63;;;;;;;;;;4943482;29;20184;-75
2022/01/04 07:03:22;;;;;;;0.50;0.50;;;;;;;;;;4945759;28;20275;-75
2022/01/04 07:05:48;;;;;;;0.70;0.70;;;;;;;;;;4939894;29;20186;-75
2022/01/04 07:08:13;;;;;;;0.50;0.50;;;;;;;;;;4940411;29;20210;-75
2022/01/04 07:10:38;;;;;;;0.93;0.53;;;;;;;;;;4950220;28;20252;-75
2022/01/04 07:13:03;;;;;;;0.80;0.80;;;;;;;;;;4940189;29;20195;-75
2022/01/04 07:15:29;;;;;;;1.73;1.03;;;;;;;;;;4938626;29;20178;-75
2022/01/04 07:17:54;;;;;;;0.80;0.80;;;;;;;;;;4955814;29;20172;-75
2022/01/04 07:20:19;;;;;;;1.07;0.97;;;;;;;;;;4954271;28;20178;-75
2022/01/04 07:22:44;;;;;;;0.77;0.77;;;;;;;;;;4937813;29;20188;-75
2022/01/04 07:25:10;;;;;;;0.70;0.70;;;;;;;;;;4959443;28;20193;-75
2022/01/04 07:27:35;;;;;;;0.50;0.50;;;;;;;;;;4943168;28;20486;-75
2022/01/04 07:30:00;;;;;;;1.53;0.57;;;;;;;;;;4938170;29;20193;-75
2022/01/04 07:32:26;;;;;;;0.80;0.80;;;;;;;;;;4938246;29;20201;-75
2022/01/04 07:34:51;;;;;;;0.73;0.73;;;;;;;;;;4942434;29;20205;-75
2022/01/04 07:37:16;;;;;;;0.80;0.73;;;;;;;;;;4953005;28;20231;-75
2022/01/04 07:39:44;;;;;;;0.80;0.80;;;;;;;;;;4937841;29;20176;-75
2022/01/04 07:42:09;;;;;;;0.60;0.60;;;;;;;;;;4939684;28;20174;-75
2022/01/04 07:44:35;;;;;;;0.80;0.73;;;;;;;;;;4939304;29;20180;-75
2022/01/04 07:47:00;;;;;;;0.70;0.70;;;;;;;;;;4938566;29;20232;-75
2022/01/04 07:49:25;;;;;;;1.13;0.80;;;;;;;;;;4950358;28;20192;-75
2022/01/04 07:51:50;;;;;;;1.20;1.10;;;;;;;;;;4948451;28;20205;-75
2022/01/04 07:54:16;;;;;;;1.20;0.73;;;;;;;;;;4934419;28;20242;-75
2022/01/04 07:56:41;;;;;;;1.13;0.93;;;;;;;;;;4955348;28;20180;-75
2022/01/04 07:59:06;;;;;;;1.47;0.87;;;;;;;;;;4936077;28;20189;-75
2022/01/04 08:01:32;;;;;;;0.70;0.70;;;;;;;;;;4939609;29;20319;-75
2022/01/04 08:03:57;;;;;;;1.40;1.30;;;;;;;;;;4952432;28;20244;-75
2022/01/04 08:06:23;;;;;;;0.70;0.70;;;;;;;;;;4943254;29;20188;-75
2022/01/04 08:08:48;;;;;;;1.43;1.17;;;;;;;;;;4940150;28;20181;-75
2022/01/04 08:11:13;;;;;;;1.03;1.00;;;;;;;;;;4937404;29;20183;-75
2022/01/04 08:13:38;;;;;;;0.70;0.70;;;;;;;;;;4954978;28;20196;-75
2022/01/04 08:16:04;;;;;;;1.07;0.87;;;;;;;;;;4954634;29;20174;-75
2022/01/04 08:18:29;;;;;;;1.17;1.00;;;;;;;;;;4938337;29;20207;-75
2022/01/04 08:20:57;;;;;;;1.03;0.90;;;;;;;;;;4954261;29;20195;-75
2022/01/04 08:23:23;;;;;;;1.27;1.20;;;;;;;;;;4941748;29;20187;-75
2022/01/04 08:25:48;;;;;;;0.70;0.70;;;;;;;;;;4942811;28;20190;-75
2022/01/04 08:28:14;;;;;;;0.90;0.90;;;;;;;;;;4938002;29;20184;-75
2022/01/04 08:30:40;;;;;;;0.90;0.90;;;;;;;;;;4934237;29;20484;-75
2022/01/04 08:33:06;;;;;;;0.70;0.70;;;;;;;;;;4952244;28;20252;-75
2022/01/04 08:35:31;;;;;;;0.77;0.77;;;;;;;;;;4933797;29;20230;-75
2022/01/04 08:37:56;;;;;;;0.80;0.80;;;;;;;;;;4933137;29;20183;-75
2022/01/04 08:40:21;;;;;;;3.50;0.90;;;;;;;;;;4933908;29;20185;-75
2022/01/04 08:42:46;;;;;;;0.97;0.97;;;;;;;;;;4934431;29;20185;-75
2022/01/04 08:45:12;;;;;;;2.00;1.30;;;;;;;;;;4934281;29;20261;-75
2022/01/04 08:47:37;;;;;;;2.13;1.20;;;;;;;;;;4935283;29;20627;-75
2022/01/04 08:50:05;;;;;;;1.17;1.07;;;;;;;;;;4931862;29;20190;-75
2022/01/04 08:52:30;;;;;;;1.20;1.10;;;;;;;;;;4934175;29;20213;-75
2022/01/04 08:54:55;;;;;;;2.50;1.33;;;;;;;;;;4934134;29;20225;-75
2022/01/04 08:57:21;;;;;;;1.63;1.07;;;;;;;;;;4934941;29;20271;-75
2022/01/04 08:59:47;;;;;;;1.50;1.40;;;;;;;;;;4946549;29;20177;-75
2022/01/04 09:02:12;;;;;;;1.83;1.00;;;;;;;;;;4930468;29;20211;-75
2022/01/04 09:04:37;;;;;;;1.40;1.30;;;;;;;;;;4933522;29;21502;-75
2022/01/04 09:07:03;;;;;;;2.10;1.50;;;;;;;;;;4932922;29;20194;-75
2022/01/04 09:09:28;;;;;;;1.13;1.03;;;;;;;;;;4930530;29;20179;-75
2022/01/04 09:11:53;;;;;;;1.40;1.30;;;;;;;;;;4943574;29;20260;-75
2022/01/04 09:14:29;;;;;;;1.37;1.27;;;;;;;;;;4933161;29;20216;-75
2022/01/04 09:19:38;;;;;;;1.23;1.13;;;;;;;;;;4932376;29;20222;-75
2022/01/04 09:22:04;;;;;;;1.13;1.00;;;;;;;;;;4935590;29;20184;-75
2022/01/04 09:24:29;;;;;;;2.00;1.20;;;;;;;;;;4933426;29;20187;-75
2022/01/04 09:26:54;;;;;;;1.23;1.13;;;;;;;;;;4932229;29;20186;-75
2022/01/04 09:29:19;;;;;;;1.07;0.90;;;;;;;;;;4949805;28;20590;-75
2022/01/04 09:31:48;;;;;;;1.03;1.00;;;;;;;;;;4936024;29;20192;-75
2022/01/04 09:34:14;;;;;;;1.30;0.97;;;;;;;;;;4937268;29;20293;-75
2022/01/04 09:36:39;;;;;;;1.30;1.00;;;;;;;;;;4936654;29;20223;-75
2022/01/04 09:39:07;;;;;;;0.90;0.90;;;;;;;;;;4937574;29;20212;-75
2022/01/04 09:41:33;;;;;;;1.80;1.50;;;;;;;;;;4937416;29;20189;-75
2022/01/04 09:43:58;;;;;;;2.00;1.40;;;;;;;;;;4938530;29;20185;-75
2022/01/04 09:46:23;;;;;;;1.67;1.57;;;;;;;;;;4931950;29;20186;-75
2022/01/04 09:48:48;;;;;;;1.80;1.70;;;;;;;;;;4934013;29;20186;-75
2022/01/04 09:51:14;;;;;;;1.10;0.90;;;;;;;;;;4933397;29;20186;-75
2022/01/04 09:53:40;;;;;;;2.37;2.17;;;;;;;;;;4937344;29;20206;-75
2022/01/04 09:56:06;;;;;;;0.83;0.83;;;;;;;;;;4936967;29;20219;-75
2022/01/04 09:58:32;;;;;;;1.33;1.23;;;;;;;;;;4935237;29;20186;-75
2022/01/04 10:00:57;;;;;;;1.20;1.10;;;;;;;;;;4946883;28;20245;-74
2022/01/04 10:03:26;;;;;;;1.17;1.03;;;;;;;;;;4933547;29;20189;-75
2022/01/04 10:06:14;;;;;;;1.40;1.30;;;;;;;;;;4938732;29;20220;-75
2022/01/04 10:09:00;;;;;;;1.37;1.27;;;;;;;;;;4946022;29;20285;-75
2022/01/04 10:11:34;;;;;;;1.20;1.10;;;;;;;;;;4937041;29;20251;-75
2022/01/04 10:14:00;;;;;;;1.60;1.30;;;;;;;;;;4935278;29;20231;-75
2022/01/04 10:16:26;;;;;;;1.40;1.30;;;;;;;;;;4936564;29;20411;-75
2022/01/04 10:18:53;;;;;;;1.43;1.07;;;;;;;;;;4935727;29;20217;-75
2022/01/04 10:21:18;;;;;;;1.13;1.03;;;;;;;;;;4935723;29;20247;-75
2022/01/04 10:23:54;;;;;;;1.17;1.07;;;;;;;;;;4933021;29;20177;-75
2022/01/04 10:26:27;;;;;;;1.07;1.00;;;;;;;;;;4937443;29;20209;-75
2022/01/04 10:28:52;;;;;;;1.73;1.40;;;;;;;;;;4948991;29;20189;-75
2022/01/04 10:31:18;;;;;;;1.23;1.10;;;;;;;;;;4932640;29;20185;-75
2022/01/04 10:33:43;;;;;;;2.53;2.33;;;;;;;;;;4935868;29;20213;-75
2022/01/04 10:36:12;;;;;;;1.40;1.30;;;;;;;;;;4934165;29;20228;-75
2022/01/04 10:38:41;;;;;;;1.87;1.50;;;;;;;;;;4930755;29;20252;-75
2022/01/04 10:41:09;;;;;;;2.40;2.07;;;;;;;;;;4935467;29;20240;-75
2022/01/04 10:43:40;;;;;;;1.20;1.10;;;;;;;;;;4938020;29;23027;-75
2022/01/04 10:46:06;;;;;;;9.97;6.70;;;;;;;;;;4937235;29;20181;-75
2022/01/04 10:48:32;;;;;;;4.80;3.60;;;;;;;;;;4936191;28;20190;-75
2022/01/04 10:50:59;;;;;;;1.40;1.30;;;;;;;;;;4934223;29;20274;-75
2022/01/04 10:53:29;;;;;;;1.90;1.70;;;;;;;;;;4939660;28;20205;-75
2022/01/04 10:55:55;;;;;;;1.97;1.83;;;;;;;;;;4931832;29;21619;-75
2022/01/04 10:58:24;;;;;;;1.40;1.30;;;;;;;;;;4935539;29;20182;-75
2022/01/04 11:00:51;;;;;;;2.10;1.43;;;;;;;;;;4933506;29;20189;-75
2022/01/04 11:03:24;;;;;;;1.50;1.40;;;;;;;;;;4936190;29;20221;-78
2022/01/04 11:05:53;;;;;;;1.30;1.20;;;;;;;;;;4947273;28;20197;-78
2022/01/04 11:08:18;;;;;;;2.07;1.93;;;;;;;;;;4950765;29;20220;-79
2022/01/04 11:10:44;;;;;;;2.17;1.50;;;;;;;;;;4935143;29;20198;-78
2022/01/04 11:13:09;;;;;;;1.40;1.30;;;;;;;;;;4935549;29;20179;-78
2022/01/04 11:15:35;;;;;;;1.23;1.13;;;;;;;;;;4951659;28;20174;-78
2022/01/04 11:18:00;;;;;;;2.03;1.70;;;;;;;;;;4935653;29;20182;-78
2022/01/04 11:20:25;;;;;;;1.97;1.30;;;;;;;;;;4939955;29;20189;-78
2022/01/04 11:22:50;;;;;;;2.77;1.50;;;;;;;;;;4938359;29;20184;-78
2022/01/04 11:25:17;;;;;;;1.37;1.20;;;;;;;;;;4937781;29;20192;-78
2022/01/04 11:27:43;;;;;;;1.63;1.53;;;;;;;;;;4935307;29;20235;-78
2022/01/04 11:30:17;;;;;;;2.00;1.80;;;;;;;;;;4937319;29;20186;-78
2022/01/04 11:32:45;;;;;;;1.80;1.50;;;;;;;;;;4934907;29;20180;-78
2022/01/04 11:35:12;;;;;;;1.80;1.70;;;;;;;;;;4936438;29;20208;-78
2022/01/04 11:37:41;;;;;;;2.57;2.17;;;;;;;;;;4938558;29;20212;-78
2022/01/04 11:40:24;;;;;;;2.10;1.90;;;;;;;;;;4938690;29;20213;-78
2022/01/04 11:42:50;;;;;;;2.60;1.97;;;;;;;;;;4946474;28;20487;-78
2022/01/04 11:45:16;;;;;;;2.17;1.97;;;;;;;;;;4933405;29;20181;-78
2022/01/04 11:47:51;;;;;;;4.13;2.37;;;;;;;;;;4939555;29;20193;-78
2022/01/04 11:50:21;;;;;;;2.07;1.90;;;;;;;;;;4945450;29;20257;-78
2022/01/04 11:52:55;;;;;;;2.67;1.83;;;;;;;;;;4936739;29;20186;-78
2022/01/04 11:55:33;;;;;;;3.50;2.33;;;;;;;;;;4942532;29;20201;-78
2022/01/04 11:58:01;;;;;;;1.93;1.73;;;;;;;;;;4932393;28;20185;-78
2022/01/04 12:00:30;;;;;;;2.30;2.00;;;;;;;;;;4952672;28;20188;-78
2022/01/04 12:03:02;;;;;;;3.33;1.87;;;;;;;;;;4934893;29;20182;-78
2022/01/04 12:05:27;;;;;;;2.27;1.90;;;;;;;;;;4954666;28;20181;-78
2022/01/04 12:07:53;;;;;;;2.80;2.00;;;;;;;;;;4939654;29;20184;-78
2022/01/04 12:10:18;;;;;;;2.20;2.00;;;;;;;;;;4939034;28;20184;-78
2022/01/04 12:12:53;;;;;;;3.40;2.17;;;;;;;;;;4959071;28;20188;-78
2022/01/04 12:15:33;;;;;;;2.37;1.97;;;;;;;;;;4938579;29;20305;-78
2022/01/04 12:18:02;;;;;;;3.60;1.80;;;;;;;;;;4955595;28;20201;-78
2022/01/04 12:20:43;;;;;;;1.90;1.80;;;;;;;;;;4937792;29;20186;-79
2022/01/04 12:23:24;;;;;;;1.57;1.47;;;;;;;;;;4938954;28;20223;-78
2022/01/04 12:26:02;;;;;;;1.93;1.50;;;;;;;;;;4950535;28;20185;-78
2022/01/04 12:28:28;;;;;;;5.20;1.80;;;;;;;;;;4950194;29;20301;-78
2022/01/04 12:31:13;;;;;;;2.30;1.60;;;;;;;;;;4939497;29;20200;-78
2022/01/04 12:33:38;;;;;;;1.83;1.73;;;;;;;;;;4938263;28;20224;-78
2022/01/04 12:36:04;;;;;;;1.93;1.50;;;;;;;;;;4934387;29;20232;-79
2022/01/04 12:38:30;;;;;;;3.20;2.17;;;;;;;;;;4934360;29;20232;-78
2022/01/04 12:40:55;;;;;;;2.77;1.87;;;;;;;;;;4929509;29;20190;-78
2022/01/04 12:43:21;;;;;;;2.70;1.90;;;;;;;;;;4934916;29;20182;-79
2022/01/04 12:45:55;;;;;;;1.80;1.40;;;;;;;;;;4938642;29;20182;-78
2022/01/04 12:48:40;;;;;;;1.97;1.87;;;;;;;;;;4935317;29;20189;-78
2022/01/04 12:51:28;;;;;;;2.53;1.70;;;;;;;;;;4933753;29;20260;-78
2022/01/04 12:53:54;;;;;;;1.57;1.43;;;;;;;;;;4945351;28;20283;-78
2022/01/04 12:56:20;;;;;;;1.87;1.77;;;;;;;;;;4935656;29;20265;-79
2022/01/04 12:58:45;;;;;;;1.47;1.37;;;;;;;;;;4931724;29;20178;-78
2022/01/04 13:01:13;;;;;;;3.03;1.40;;;;;;;;;;4931440;29;20268;-78
2022/01/04 13:03:39;;;;;;;2.10;1.40;;;;;;;;;;4931227;29;20183;-78
2022/01/04 13:06:05;;;;;;;1.50;1.40;;;;;;;;;;4933320;29;20186;-78
2022/01/04 13:08:31;;;;;;;1.40;1.30;;;;;;;;;;4934167;29;20337;-78
2022/01/04 13:11:04;;;;;;;1.60;1.50;;;;;;;;;;4929958;29;20184;-78
2022/01/04 13:13:30;;;;;;;1.17;1.10;;;;;;;;;;4933693;29;20205;-78
2022/01/04 13:15:55;;;;;;;1.50;1.30;;;;;;;;;;4934794;29;20209;-78
2022/01/04 13:18:29;;;;;;;1.70;1.00;;;;;;;;;;4933592;29;20238;-78
2022/01/04 13:21:04;;;;;;;0.97;0.97;;;;;;;;;;4932177;29;20186;-78
2022/01/04 13:23:30;;;;;;;0.90;0.90;;;;;;;;;;4933674;29;20181;-78
2022/01/04 13:25:58;;;;;;;1.13;1.00;;;;;;;;;;4937348;29;20241;-78
2022/01/04 13:28:23;;;;;;;0.80;0.80;;;;;;;;;;4933917;29;20188;-79
2022/01/04 13:30:50;;;;;;;0.73;0.73;;;;;;;;;;4933319;29;20247;-78
2022/01/04 13:33:20;;;;;;;0.77;0.77;;;;;;;;;;4934743;29;20217;-78
2022/01/04 13:35:48;;;;;;;1.40;1.00;;;;;;;;;;4947365;29;20325;-78
2022/01/04 13:38:19;;;;;;;1.27;1.17;;;;;;;;;;4934725;29;20202;-78
2022/01/04 13:40:45;;;;;;;1.93;1.00;;;;;;;;;;4933489;29;20190;-79
2022/01/04 13:43:11;;;;;;;0.87;0.87;;;;;;;;;;4949772;29;20241;-78
2022/01/04 13:45:50;;;;;;;1.77;1.20;;;;;;;;;;4935102;29;20182;-78
2022/01/04 13:48:22;;;;;;;1.37;1.27;;;;;;;;;;4931284;29;20260;-78
2022/01/04 13:50:47;;;;;;;0.83;0.83;;;;;;;;;;4932749;29;20267;-79
2022/01/04 13:53:14;;;;;;;1.30;0.50;;;;;;;;;;4933541;29;20182;-79
2022/01/04 13:55:43;;;;;;;0.20;0.20;;;;;;;;;;4933679;29;20201;-79
2022/01/04 13:58:10;;;;;;;0.23;0.23;;;;;;;;;;4929847;29;20223;-79
2022/01/04 14:00:35;;;;;;;0.00;0.00;;;;;;;;;;4931808;29;20180;-78
2022/01/04 14:03:00;;;;;;;0.30;0.20;;;;;;;;;;4936581;29;20189;-79
2022/01/04 14:05:33;;;;;;;0.60;0.40;;;;;;;;;;4930784;29;20256;-78
2022/01/04 14:07:59;;;;;;;0.10;0.10;;;;;;;;;;4935490;29;20294;-79
2022/01/04 14:10:42;;;;;;;0.00;0.00;;;;;;;;;;4933552;29;20188;-78
2022/01/04 14:13:25;;;;;;;0.07;0.07;;;;;;;;;;4947226;29;20186;-78
2022/01/04 14:16:06;;;;;;;0.00;0.00;;;;;;;;;;4933262;29;20192;-78
2022/01/04 14:18:31;;;;;;;0.93;0.07;;;;;;;;;;4933096;29;20219;-78
2022/01/04 14:20:56;;;;;;;0.20;0.20;;;;;;;;;;4949186;28;20226;-78
2022/01/04 14:23:32;;;;;;;0.70;0.20;;;;;;;;;;4937055;29;20284;-78
2022/01/04 14:26:04;;;;;;;0.10;0.10;;;;;;;;;;4949622;29;20274;-78
2022/01/04 14:28:29;;;;;;;0.00;0.00;;;;;;;;;;4936446;29;20180;-78
2022/01/04 14:30:55;;;;;;;0.37;0.20;;;;;;;;;;4936524;29;20214;-78
2022/01/04 14:33:20;;;;;;;0.07;0.07;;;;;;;;;;4941507;29;20209;-78
2022/01/04 14:35:45;;;;;;;0.00;0.00;;;;;;;;;;4936614;29;20262;-78
2022/01/04 14:38:10;;;;;;;0.10;0.10;;;;;;;;;;4929509;29;20177;-78
2022/01/04 14:40:36;;;;;;;0.00;0.00;;;;;;;;;;4935847;29;20276;-78
2022/01/04 14:43:01;;;;;;;0.20;0.20;;;;;;;;;;4935304;29;20192;-78
2022/01/04 14:45:29;;;;;;;0.23;0.20;;;;;;;;;;4938264;29;20199;-78